Dixon, South Dakota
Current Conditions -  °F | °C
As of 5:53 AM on Monday 26 Jan 2015 (Local Time) from KICR Reporting Station
Clear Clear  
Wind Chill: 38°   Ceiling: Unl
Heat Index: 45°   Visibility: 10mi
Dew Point: 33°   Wind: 15mph
Humidity: 63%   Direction: 280°W
Pressure: 29.91"   Gusts: NA
Location:  43.2419°N, 99.4287°W
Report Text: KICR 261153Z AUTO 28013KT 10SM CLR 07/01 A2991 RMK AO2 SLP140 T00720006 10078 20056 53007
Loading
Personal Weather Stations






























Interactive Weather Map New forecast layout! Learn more

10-Day Weather Forecast

Advertisements
Track Severe Weather on mobile